sensor_id;sensor_type;location;lat;lon;timestamp;pressure;altitude;pressure_sealevel;temperature;humidity
31088;BME280;17745;55.914;37.554;2023-04-20T00:01:02;99888.28;;;11.41;28.88
31088;BME280;17745;55.914;37.554;2023-04-20T00:03:30;99877.34;;;11.38;29.01
31088;BME280;17745;55.914;37.554;2023-04-20T00:05:58;99886.59;;;11.35;29.10
31088;BME280;17745;55.914;37.554;2023-04-20T00:08:26;99883.41;;;11.33;29.12
31088;BME280;17745;55.914;37.554;2023-04-20T00:10:56;99878.56;;;11.30;29.18
31088;BME280;17745;55.914;37.554;2023-04-20T00:13:23;99880.91;;;11.26;29.37
31088;BME280;17745;55.914;37.554;2023-04-20T00:15:51;99884.03;;;11.23;29.42
31088;BME280;17745;55.914;37.554;2023-04-20T00:18:19;99871.00;;;11.22;29.48
31088;BME280;17745;55.914;37.554;2023-04-20T00:20:47;99875.75;;;11.20;29.53
31088;BME280;17745;55.914;37.554;2023-04-20T00:23:15;99876.22;;;11.17;29.59
31088;BME280;17745;55.914;37.554;2023-04-20T00:25:43;99875.66;;;11.14;29.63
31088;BME280;17745;55.914;37.554;2023-04-20T00:28:12;99883.06;;;11.12;29.71
31088;BME280;17745;55.914;37.554;2023-04-20T00:30:40;99881.41;;;11.11;29.67
31088;BME280;17745;55.914;37.554;2023-04-20T00:33:09;99876.84;;;11.07;29.86
31088;BME280;17745;55.914;37.554;2023-04-20T00:35:37;99876.53;;;11.03;29.90
31088;BME280;17745;55.914;37.554;2023-04-20T00:38:05;99881.47;;;10.99;30.10
31088;BME280;17745;55.914;37.554;2023-04-20T00:40:33;99872.41;;;10.95;30.21
31088;BME280;17745;55.914;37.554;2023-04-20T00:43:09;99859.94;;;10.79;30.44
31088;BME280;17745;55.914;37.554;2023-04-20T00:45:38;99877.28;;;10.86;30.56
31088;BME280;17745;55.914;37.554;2023-04-20T00:48:06;99870.84;;;10.82;30.62
31088;BME280;17745;55.914;37.554;2023-04-20T00:50:34;99867.66;;;10.80;30.66
31088;BME280;17745;55.914;37.554;2023-04-20T00:53:06;99864.66;;;10.77;30.77
31088;BME280;17745;55.914;37.554;2023-04-20T00:55:36;99863.87;;;10.76;30.70
31088;BME280;17745;55.914;37.554;2023-04-20T00:58:04;99865.13;;;10.73;30.64
31088;BME280;17745;55.914;37.554;2023-04-20T01:00:32;99860.31;;;10.70;30.66
31088;BME280;17745;55.914;37.554;2023-04-20T01:03:01;99857.91;;;10.69;30.62
31088;BME280;17745;55.914;37.554;2023-04-20T01:05:29;99854.13;;;10.65;30.81
31088;BME280;17745;55.914;37.554;2023-04-20T01:07:57;99848.97;;;10.58;31.09
31088;BME280;17745;55.914;37.554;2023-04-20T01:10:29;99848.41;;;10.56;31.14
31088;BME280;17745;55.914;37.554;2023-04-20T01:12:57;99834.50;;;10.49;31.18
31088;BME280;17745;55.914;37.554;2023-04-20T01:15:25;99841.63;;;10.48;31.28
31088;BME280;17745;55.914;37.554;2023-04-20T01:17:53;99840.50;;;10.44;31.30
31088;BME280;17745;55.914;37.554;2023-04-20T01:20:22;99838.31;;;10.41;31.30
31088;BME280;17745;55.914;37.554;2023-04-20T01:22:54;99837.16;;;10.37;31.54
31088;BME280;17745;55.914;37.554;2023-04-20T01:25:22;99839.25;;;10.35;31.61
31088;BME280;17745;55.914;37.554;2023-04-20T01:27:49;99833.59;;;10.31;31.65
31088;BME280;17745;55.914;37.554;2023-04-20T01:30:17;99835.59;;;10.24;32.08
31088;BME280;17745;55.914;37.554;2023-04-20T01:32:45;99834.22;;;10.21;32.11
31088;BME280;17745;55.914;37.554;2023-04-20T01:35:14;99839.72;;;10.20;32.13
31088;BME280;17745;55.914;37.554;2023-04-20T01:37:44;99829.59;;;10.16;32.22
31088;BME280;17745;55.914;37.554;2023-04-20T01:40:13;99828.25;;;10.14;32.25
31088;BME280;17745;55.914;37.554;2023-04-20T01:42:44;99831.13;;;10.12;32.24
31088;BME280;17745;55.914;37.554;2023-04-20T01:45:12;99837.66;;;10.10;32.21
31088;BME280;17745;55.914;37.554;2023-04-20T01:47:39;99830.19;;;10.07;32.17
31088;BME280;17745;55.914;37.554;2023-04-20T01:50:08;99819.53;;;10.01;32.32
31088;BME280;17745;55.914;37.554;2023-04-20T01:52:36;99820.47;;;9.95;32.48
31088;BME280;17745;55.914;37.554;2023-04-20T01:55:04;99822.75;;;9.92;32.72
31088;BME280;17745;55.914;37.554;2023-04-20T01:57:33;99824.03;;;9.89;32.81
31088;BME280;17745;55.914;37.554;2023-04-20T02:00:06;99822.09;;;9.84;33.04
31088;BME280;17745;55.914;37.554;2023-04-20T02:02:40;99826.25;;;9.80;33.09
31088;BME280;17745;55.914;37.554;2023-04-20T02:05:08;99824.84;;;9.78;33.14
31088;BME280;17745;55.914;37.554;2023-04-20T02:07:36;99823.72;;;9.73;33.14
31088;BME280;17745;55.914;37.554;2023-04-20T02:10:06;99819.47;;;9.72;33.13
31088;BME280;17745;55.914;37.554;2023-04-20T02:12:36;99818.28;;;9.68;33.34
31088;BME280;17745;55.914;37.554;2023-04-20T02:15:05;99817.72;;;9.66;33.37
31088;BME280;17745;55.914;37.554;2023-04-20T02:17:55;99812.34;;;9.61;33.67
31088;BME280;17745;55.914;37.554;2023-04-20T02:20:23;99818.53;;;9.55;33.96
31088;BME280;17745;55.914;37.554;2023-04-20T02:22:51;99820.03;;;9.51;34.20
31088;BME280;17745;55.914;37.554;2023-04-20T02:25:19;99815.53;;;9.51;34.06
31088;BME280;17745;55.914;37.554;2023-04-20T02:27:49;99807.03;;;9.49;34.27
31088;BME280;17745;55.914;37.554;2023-04-20T02:30:17;99814.16;;;9.49;34.33
31088;BME280;17745;55.914;37.554;2023-04-20T02:32:45;99812.56;;;9.48;34.34
31088;BME280;17745;55.914;37.554;2023-04-20T02:35:17;99808.88;;;9.49;34.41
31088;BME280;17745;55.914;37.554;2023-04-20T02:37:46;99809.91;;;9.48;34.65
31088;BME280;17745;55.914;37.554;2023-04-20T02:40:15;99814.97;;;9.49;34.57
31088;BME280;17745;55.914;37.554;2023-04-20T02:42:46;99817.63;;;9.49;34.78
31088;BME280;17745;55.914;37.554;2023-04-20T02:45:16;99814.16;;;9.49;34.67
31088;BME280;17745;55.914;37.554;2023-04-20T02:47:45;99811.97;;;9.57;34.61
31088;BME280;17745;55.914;37.554;2023-04-20T02:50:14;99810.16;;;9.58;34.70
31088;BME280;17745;55.914;37.554;2023-04-20T02:52:44;99811.53;;;9.61;34.73
31088;BME280;17745;55.914;37.554;2023-04-20T02:55:12;99801.84;;;9.66;34.67
31088;BME280;17745;55.914;37.554;2023-04-20T02:57:41;99809.56;;;9.68;34.73
31088;BME280;17745;55.914;37.554;2023-04-20T03:00:13;99815.22;;;9.71;34.79
31088;BME280;17745;55.914;37.554;2023-04-20T03:02:44;99811.28;;;9.74;34.79
31088;BME280;17745;55.914;37.554;2023-04-20T03:05:12;99811.63;;;9.78;34.78
31088;BME280;17745;55.914;37.554;2023-04-20T03:07:40;99812.41;;;9.78;34.84
31088;BME280;17745;55.914;37.554;2023-04-20T03:10:14;99816.81;;;9.84;34.83
31088;BME280;17745;55.914;37.554;2023-04-20T03:12:57;99807.38;;;9.89;34.80
31088;BME280;17745;55.914;37.554;2023-04-20T03:15:27;99810.56;;;9.91;34.87
31088;BME280;17745;55.914;37.554;2023-04-20T03:18:07;99803.09;;;9.87;34.90
31088;BME280;17745;55.914;37.554;2023-04-20T03:20:35;99806.09;;;9.91;35.01
31088;BME280;17745;55.914;37.554;2023-04-20T03:23:05;99802.06;;;9.89;35.11
31088;BME280;17745;55.914;37.554;2023-04-20T03:25:35;99800.81;;;9.91;35.14
31088;BME280;17745;55.914;37.554;2023-04-20T03:28:12;99788.50;;;9.85;35.24
31088;BME280;17745;55.914;37.554;2023-04-20T03:30:43;99797.22;;;9.97;35.23
31088;BME280;17745;55.914;37.554;2023-04-20T03:33:17;99788.25;;;9.98;35.34
31088;BME280;17745;55.914;37.554;2023-04-20T03:35:58;99799.19;;;10.02;35.40
31088;BME280;17745;55.914;37.554;2023-04-20T03:38:26;99786.28;;;10.06;35.38
31088;BME280;17745;55.914;37.554;2023-04-20T03:41:01;99780.97;;;10.06;35.36
31088;BME280;17745;55.914;37.554;2023-04-20T03:43:39;99788.28;;;10.27;35.18
31088;BME280;17745;55.914;37.554;2023-04-20T03:46:20;99793.69;;;10.33;35.18
31088;BME280;17745;55.914;37.554;2023-04-20T03:48:53;99790.31;;;10.37;35.24
31088;BME280;17745;55.914;37.554;2023-04-20T03:51:24;99795.28;;;10.34;35.33
31088;BME280;17745;55.914;37.554;2023-04-20T03:53:52;99794.00;;;10.36;35.32
31088;BME280;17745;55.914;37.554;2023-04-20T03:56:21;99788.47;;;10.38;35.42
31088;BME280;17745;55.914;37.554;2023-04-20T03:58:49;99796.41;;;10.38;35.52
31088;BME280;17745;55.914;37.554;2023-04-20T04:01:21;99799.62;;;10.40;35.53
31088;BME280;17745;55.914;37.554;2023-04-20T04:04:00;99804.81;;;10.47;35.46
31088;BME280;17745;55.914;37.554;2023-04-20T04:06:35;99798.16;;;10.44;35.58
31088;BME280;17745;55.914;37.554;2023-04-20T04:09:03;99794.31;;;10.52;35.61
31088;BME280;17745;55.914;37.554;2023-04-20T04:11:31;99796.81;;;10.58;35.50
31088;BME280;17745;55.914;37.554;2023-04-20T04:14:04;99795.63;;;10.66;35.41
31088;BME280;17745;55.914;37.554;2023-04-20T04:16:38;99791.53;;;10.76;35.38
31088;BME280;17745;55.914;37.554;2023-04-20T04:22:40;99788.69;;;10.94;35.27
31088;BME280;17745;55.914;37.554;2023-04-20T04:25:21;99787.00;;;11.05;35.12
31088;BME280;17745;55.914;37.554;2023-04-20T04:27:54;99784.75;;;11.14;35.04
31088;BME280;17745;55.914;37.554;2023-04-20T04:30:28;99794.69;;;11.24;34.99
31088;BME280;17745;55.914;37.554;2023-04-20T04:33:45;99787.63;;;11.29;34.95
31088;BME280;17745;55.914;37.554;2023-04-20T04:36:19;99790.09;;;11.53;34.81
31088;BME280;17745;55.914;37.554;2023-04-20T04:38:47;99782.28;;;11.64;34.70
31088;BME280;17745;55.914;37.554;2023-04-20T04:41:15;99777.09;;;11.74;34.63
31088;BME280;17745;55.914;37.554;2023-04-20T04:43:44;99774.81;;;11.83;34.62
31088;BME280;17745;55.914;37.554;2023-04-20T04:46:13;99772.37;;;11.98;34.57
31088;BME280;17745;55.914;37.554;2023-04-20T04:48:41;99775.19;;;12.14;34.47
31088;BME280;17745;55.914;37.554;2023-04-20T04:51:09;99770.34;;;12.28;34.24
31088;BME280;17745;55.914;37.554;2023-04-20T04:53:38;99767.53;;;12.40;34.13
31088;BME280;17745;55.914;37.554;2023-04-20T04:56:10;99768.44;;;12.51;34.03
31088;BME280;17745;55.914;37.554;2023-04-20T04:58:38;99761.34;;;12.62;33.95
31088;BME280;17745;55.914;37.554;2023-04-20T05:01:06;99765.50;;;12.80;33.86
31088;BME280;17745;55.914;37.554;2023-04-20T05:03:33;99761.12;;;12.96;33.73
31088;BME280;17745;55.914;37.554;2023-04-20T05:06:02;99759.38;;;13.12;33.67
31088;BME280;17745;55.914;37.554;2023-04-20T05:08:29;99762.63;;;13.24;33.58
31088;BME280;17745;55.914;37.554;2023-04-20T05:10:59;99766.97;;;13.36;33.36
31088;BME280;17745;55.914;37.554;2023-04-20T05:13:27;99761.12;;;13.39;33.21
31088;BME280;17745;55.914;37.554;2023-04-20T05:15:54;99763.06;;;13.49;33.13
31088;BME280;17745;55.914;37.554;2023-04-20T05:18:22;99757.28;;;13.62;33.02
31088;BME280;17745;55.914;37.554;2023-04-20T05:20:51;99760.53;;;13.75;32.88
31088;BME280;17745;55.914;37.554;2023-04-20T05:23:23;99756.03;;;13.85;32.77
31088;BME280;17745;55.914;37.554;2023-04-20T05:25:51;99753.16;;;13.97;32.66
31088;BME280;17745;55.914;37.554;2023-04-20T05:28:20;99750.00;;;14.11;32.56
31088;BME280;17745;55.914;37.554;2023-04-20T05:30:48;99750.84;;;14.22;32.37
31088;BME280;17745;55.914;37.554;2023-04-20T05:33:16;99749.53;;;14.35;32.33
31088;BME280;17745;55.914;37.554;2023-04-20T05:35:44;99754.88;;;14.45;32.11
31088;BME280;17745;55.914;37.554;2023-04-20T05:38:11;99747.97;;;14.60;32.11
31088;BME280;17745;55.914;37.554;2023-04-20T05:40:39;99741.84;;;14.64;31.91
31088;BME280;17745;55.914;37.554;2023-04-20T05:43:07;99738.12;;;14.70;31.79
31088;BME280;17745;55.914;37.554;2023-04-20T05:45:38;99744.50;;;14.64;31.51
31088;BME280;17745;55.914;37.554;2023-04-20T05:48:06;99739.19;;;14.69;31.57
31088;BME280;17745;55.914;37.554;2023-04-20T05:50:34;99745.84;;;14.77;31.53
31088;BME280;17745;55.914;37.554;2023-04-20T05:53:04;99745.88;;;14.87;31.43
31088;BME280;17745;55.914;37.554;2023-04-20T05:55:32;99736.25;;;14.97;31.26
31088;BME280;17745;55.914;37.554;2023-04-20T05:58:03;99738.09;;;15.17;31.05
31088;BME280;17745;55.914;37.554;2023-04-20T06:00:31;99736.69;;;15.40;30.74
31088;BME280;17745;55.914;37.554;2023-04-20T06:03:00;99740.16;;;15.51;30.42
31088;BME280;17745;55.914;37.554;2023-04-20T06:05:30;99733.69;;;15.63;30.32
31088;BME280;17745;55.914;37.554;2023-04-20T06:07:59;99734.19;;;15.70;30.17
31088;BME280;17745;55.914;37.554;2023-04-20T06:10:27;99727.22;;;15.79;30.01
31088;BME280;17745;55.914;37.554;2023-04-20T06:12:57;99729.91;;;15.79;29.85
31088;BME280;17745;55.914;37.554;2023-04-20T06:15:25;99723.75;;;15.89;29.84
31088;BME280;17745;55.914;37.554;2023-04-20T06:17:54;99734.34;;;16.05;29.65
31088;BME280;17745;55.914;37.554;2023-04-20T06:20:29;99734.75;;;16.27;29.64
31088;BME280;17745;55.914;37.554;2023-04-20T06:22:57;99726.06;;;16.46;29.42
31088;BME280;17745;55.914;37.554;2023-04-20T06:25:25;99731.25;;;16.67;29.40
31088;BME280;17745;55.914;37.554;2023-04-20T06:27:53;99724.91;;;16.87;29.27
31088;BME280;17745;55.914;37.554;2023-04-20T06:30:21;99731.75;;;17.04;29.09
31088;BME280;17745;55.914;37.554;2023-04-20T06:32:49;99731.59;;;17.19;28.93
31088;BME280;17745;55.914;37.554;2023-04-20T06:35:17;99724.84;;;17.27;28.77
31088;BME280;17745;55.914;37.554;2023-04-20T06:37:49;99729.56;;;17.35;28.48
31088;BME280;17745;55.914;37.554;2023-04-20T06:40:17;99718.59;;;17.37;28.47
31088;BME280;17745;55.914;37.554;2023-04-20T06:42:46;99721.44;;;17.46;28.43
31088;BME280;17745;55.914;37.554;2023-04-20T06:45:16;99718.87;;;17.54;28.25
31088;BME280;17745;55.914;37.554;2023-04-20T06:47:45;99727.72;;;17.55;27.68
31088;BME280;17745;55.914;37.554;2023-04-20T06:50:15;99719.25;;;17.48;27.55
31088;BME280;17745;55.914;37.554;2023-04-20T06:52:43;99720.34;;;17.47;27.57
31088;BME280;17745;55.914;37.554;2023-04-20T06:55:16;99723.12;;;17.61;27.63
31088;BME280;17745;55.914;37.554;2023-04-20T06:57:46;99715.19;;;17.75;27.37
31088;BME280;17745;55.914;37.554;2023-04-20T07:00:16;99712.78;;;17.73;27.14
31088;BME280;17745;55.914;37.554;2023-04-20T07:02:44;99715.09;;;17.80;27.20
31088;BME280;17745;55.914;37.554;2023-04-20T07:05:12;99713.44;;;17.84;27.08
31088;BME280;17745;55.914;37.554;2023-04-20T07:07:42;99707.81;;;17.85;27.09
31088;BME280;17745;55.914;37.554;2023-04-20T07:10:30;99712.88;;;17.87;26.86
31088;BME280;17745;55.914;37.554;2023-04-20T07:12:58;99707.09;;;17.99;26.69
31088;BME280;17745;55.914;37.554;2023-04-20T07:15:26;99704.28;;;18.09;26.65
31088;BME280;17745;55.914;37.554;2023-04-20T07:17:56;99708.19;;;18.17;26.38
31088;BME280;17745;55.914;37.554;2023-04-20T07:20:29;99690.94;;;18.23;26.33
31088;BME280;17745;55.914;37.554;2023-04-20T07:23:10;99696.16;;;18.34;26.29
31088;BME280;17745;55.914;37.554;2023-04-20T07:25:40;99690.63;;;18.44;26.19
31088;BME280;17745;55.914;37.554;2023-04-20T07:28:09;99689.66;;;18.54;25.97
31088;BME280;17745;55.914;37.554;2023-04-20T07:30:37;99687.69;;;18.60;25.76
31088;BME280;17745;55.914;37.554;2023-04-20T07:33:25;99680.97;;;18.62;25.50
31088;BME280;17745;55.914;37.554;2023-04-20T07:35:58;99688.16;;;18.81;25.28
31088;BME280;17745;55.914;37.554;2023-04-20T07:38:29;99681.22;;;18.94;25.28
31088;BME280;17745;55.914;37.554;2023-04-20T07:41:00;99682.09;;;18.89;24.82
31088;BME280;17745;55.914;37.554;2023-04-20T07:43:33;99681.97;;;18.80;24.53
31088;BME280;17745;55.914;37.554;2023-04-20T07:46:01;99676.59;;;18.99;24.60
31088;BME280;17745;55.914;37.554;2023-04-20T07:48:33;99679.06;;;19.24;24.50
31088;BME280;17745;55.914;37.554;2023-04-20T07:51:01;99680.94;;;19.37;24.21
31088;BME280;17745;55.914;37.554;2023-04-20T07:53:34;99680.84;;;19.42;24.04
31088;BME280;17745;55.914;37.554;2023-04-20T07:56:06;99680.63;;;19.53;23.84
31088;BME280;17745;55.914;37.554;2023-04-20T07:58:43;99672.84;;;19.65;23.13
31088;BME280;17745;55.914;37.554;2023-04-20T08:01:13;99668.28;;;19.66;22.29
31088;BME280;17745;55.914;37.554;2023-04-20T08:03:48;99669.47;;;19.74;22.58
31088;BME280;17745;55.914;37.554;2023-04-20T08:06:19;99664.13;;;19.96;22.44
31088;BME280;17745;55.914;37.554;2023-04-20T08:08:48;99662.06;;;20.16;22.06
31088;BME280;17745;55.914;37.554;2023-04-20T08:11:19;99663.84;;;20.21;21.69
31088;BME280;17745;55.914;37.554;2023-04-20T08:13:54;99656.44;;;20.26;21.38
31088;BME280;17745;55.914;37.554;2023-04-20T08:16:22;99659.97;;;19.90;19.49
31088;BME280;17745;55.914;37.554;2023-04-20T08:18:50;99655.34;;;19.68;19.73
31088;BME280;17745;55.914;37.554;2023-04-20T08:21:18;99651.59;;;19.55;19.98
31088;BME280;17745;55.914;37.554;2023-04-20T08:23:50;99668.72;;;19.31;20.02
31088;BME280;17745;55.914;37.554;2023-04-20T08:26:22;99665.94;;;19.36;20.59
31088;BME280;17745;55.914;37.554;2023-04-20T08:28:59;99664.94;;;19.32;20.90
31088;BME280;17745;55.914;37.554;2023-04-20T08:31:30;99664.72;;;19.42;21.01
31088;BME280;17745;55.914;37.554;2023-04-20T08:33:59;99659.75;;;19.50;21.10
31088;BME280;17745;55.914;37.554;2023-04-20T08:36:28;99650.41;;;19.47;21.07
31088;BME280;17745;55.914;37.554;2023-04-20T08:39:06;99650.00;;;19.54;21.17
31088;BME280;17745;55.914;37.554;2023-04-20T08:41:37;99645.94;;;19.79;21.01
31088;BME280;17745;55.914;37.554;2023-04-20T08:44:09;99630.50;;;19.85;20.83
31088;BME280;17745;55.914;37.554;2023-04-20T08:46:41;99638.19;;;19.92;20.75
31088;BME280;17745;55.914;37.554;2023-04-20T08:49:17;99651.97;;;19.99;20.61
31088;BME280;17745;55.914;37.554;2023-04-20T08:51:54;99635.37;;;19.97;20.62
31088;BME280;17745;55.914;37.554;2023-04-20T08:54:22;99636.81;;;19.80;20.51
31088;BME280;17745;55.914;37.554;2023-04-20T08:57:08;99633.59;;;19.78;20.77
31088;BME280;17745;55.914;37.554;2023-04-20T08:59:37;99633.94;;;19.77;20.66
31088;BME280;17745;55.914;37.554;2023-04-20T09:02:14;99631.44;;;19.80;20.74
31088;BME280;17745;55.914;37.554;2023-04-20T09:04:46;99625.50;;;20.06;20.76
31088;BME280;17745;55.914;37.554;2023-04-20T09:07:22;99623.78;;;20.10;20.85
31088;BME280;17745;55.914;37.554;2023-04-20T09:09:56;99622.13;;;20.00;20.55
31088;BME280;17745;55.914;37.554;2023-04-20T09:12:44;99616.09;;;19.81;20.40
31088;BME280;17745;55.914;37.554;2023-04-20T09:15:30;99614.28;;;19.53;20.34
31088;BME280;17745;55.914;37.554;2023-04-20T09:18:13;99620.34;;;19.59;20.31
31088;BME280;17745;55.914;37.554;2023-04-20T09:20:44;99620.66;;;19.43;20.47
31088;BME280;17745;55.914;37.554;2023-04-20T09:23:20;99613.22;;;19.40;20.62
31088;BME280;17745;55.914;37.554;2023-04-20T09:25:56;99620.75;;;19.52;20.76
31088;BME280;17745;55.914;37.554;2023-04-20T09:28:38;99611.06;;;19.65;20.73
31088;BME280;17745;55.914;37.554;2023-04-20T09:31:26;99616.03;;;19.72;20.76
31088;BME280;17745;55.914;37.554;2023-04-20T09:34:28;99620.25;;;19.87;20.74
31088;BME280;17745;55.914;37.554;2023-04-20T09:37:08;99612.78;;;19.84;20.58
31088;BME280;17745;55.914;37.554;2023-04-20T09:39:48;99604.00;;;19.69;20.63
31088;BME280;17745;55.914;37.554;2023-04-20T09:42:23;99604.31;;;19.68;20.27
31088;BME280;17745;55.914;37.554;2023-04-20T09:44:57;99615.25;;;19.71;20.15
31088;BME280;17745;55.914;37.554;2023-04-20T09:47:29;99604.94;;;19.88;19.96
31088;BME280;17745;55.914;37.554;2023-04-20T09:50:04;99611.84;;;20.03;19.83
31088;BME280;17745;55.914;37.554;2023-04-20T09:52:36;99619.13;;;20.25;19.49
31088;BME280;17745;55.914;37.554;2023-04-20T09:55:05;99608.72;;;20.64;19.50
31088;BME280;17745;55.914;37.554;2023-04-20T09:57:39;99606.38;;;21.03;19.44
31088;BME280;17745;55.914;37.554;2023-04-20T10:00:20;99596.59;;;21.33;19.20
31088;BME280;17745;55.914;37.554;2023-04-20T10:02:50;99604.84;;;21.63;19.03
31088;BME280;17745;55.914;37.554;2023-04-20T10:05:30;99596.47;;;21.91;18.88
31088;BME280;17745;55.914;37.554;2023-04-20T10:08:03;99598.66;;;21.98;18.70
31088;BME280;17745;55.914;37.554;2023-04-20T10:10:44;99595.66;;;22.08;18.39
31088;BME280;17745;55.914;37.554;2023-04-20T10:13:16;99591.16;;;22.30;17.78
31088;BME280;17745;55.914;37.554;2023-04-20T10:15:51;99583.03;;;22.48;17.67
31088;BME280;17745;55.914;37.554;2023-04-20T10:18:24;99578.62;;;22.73;17.71
31088;BME280;17745;55.914;37.554;2023-04-20T10:21:04;99581.34;;;23.03;17.46
31088;BME280;17745;55.914;37.554;2023-04-20T10:23:47;99570.94;;;22.54;17.25
31088;BME280;17745;55.914;37.554;2023-04-20T10:26:15;99571.59;;;21.68;17.39
31088;BME280;17745;55.914;37.554;2023-04-20T10:28:48;99563.62;;;21.19;17.81
31088;BME280;17745;55.914;37.554;2023-04-20T10:31:40;99573.72;;;20.95;17.94
31088;BME280;17745;55.914;37.554;2023-04-20T10:34:36;99567.69;;;20.90;18.30
31088;BME280;17745;55.914;37.554;2023-04-20T10:37:14;99567.34;;;20.82;18.63
31088;BME280;17745;55.914;37.554;2023-04-20T10:39:44;99580.94;;;20.77;18.99
31088;BME280;17745;55.914;37.554;2023-04-20T10:42:26;99579.66;;;20.43;19.44
31088;BME280;17745;55.914;37.554;2023-04-20T10:45:00;99577.66;;;19.94;19.86
31088;BME280;17745;55.914;37.554;2023-04-20T10:47:52;99558.66;;;19.68;20.09
31088;BME280;17745;55.914;37.554;2023-04-20T10:50:24;99559.63;;;19.72;20.26
31088;BME280;17745;55.914;37.554;2023-04-20T10:52:56;99561.75;;;19.84;20.52
31088;BME280;17745;55.914;37.554;2023-04-20T10:55:26;99548.78;;;19.40;20.87
31088;BME280;17745;55.914;37.554;2023-04-20T10:57:57;99543.78;;;19.48;20.77
31088;BME280;17745;55.914;37.554;2023-04-20T11:00:27;99559.06;;;19.84;20.57
31088;BME280;17745;55.914;37.554;2023-04-20T11:02:59;99564.22;;;20.17;20.36
31088;BME280;17745;55.914;37.554;2023-04-20T11:05:32;99558.34;;;20.15;20.37
31088;BME280;17745;55.914;37.554;2023-04-20T11:08:13;99549.63;;;20.41;20.29
31088;BME280;17745;55.914;37.554;2023-04-20T11:10:51;99549.13;;;20.39;20.22
31088;BME280;17745;55.914;37.554;2023-04-20T11:13:19;99540.78;;;20.49;20.13
31088;BME280;17745;55.914;37.554;2023-04-20T11:16:10;99542.34;;;20.50;19.95
31088;BME280;17745;55.914;37.554;2023-04-20T11:18:48;99545.44;;;20.26;20.21
31088;BME280;17745;55.914;37.554;2023-04-20T11:21:18;99558.72;;;19.99;20.52
31088;BME280;17745;55.914;37.554;2023-04-20T11:23:46;99544.13;;;19.92;20.62
31088;BME280;17745;55.914;37.554;2023-04-20T11:26:15;99538.47;;;19.79;20.63
31088;BME280;17745;55.914;37.554;2023-04-20T11:28:52;99540.69;;;19.77;20.59
31088;BME280;17745;55.914;37.554;2023-04-20T11:31:21;99539.13;;;19.99;20.54
31088;BME280;17745;55.914;37.554;2023-04-20T11:33:54;99533.88;;;19.94;20.32
31088;BME280;17745;55.914;37.554;2023-04-20T11:36:23;99529.25;;;20.17;20.23
31088;BME280;17745;55.914;37.554;2023-04-20T11:38:51;99512.94;;;20.13;20.31
31088;BME280;17745;55.914;37.554;2023-04-20T11:41:23;99520.81;;;20.91;20.03
31088;BME280;17745;55.914;37.554;2023-04-20T11:43:52;99517.31;;;22.52;18.71
31088;BME280;17745;55.914;37.554;2023-04-20T11:46:21;99509.19;;;23.34;17.83
31088;BME280;17745;55.914;37.554;2023-04-20T11:48:50;99506.66;;;23.07;17.74
31088;BME280;17745;55.914;37.554;2023-04-20T11:51:31;99509.91;;;22.32;18.26
31088;BME280;17745;55.914;37.554;2023-04-20T11:56:45;99502.78;;;22.96;17.96
31088;BME280;17745;55.914;37.554;2023-04-20T11:59:15;99491.84;;;23.68;17.20
31088;BME280;17745;55.914;37.554;2023-04-20T12:01:45;99489.50;;;24.50;16.47
31088;BME280;17745;55.914;37.554;2023-04-20T12:04:14;99488.97;;;24.98;16.11
31088;BME280;17745;55.914;37.554;2023-04-20T12:06:46;99494.12;;;25.44;15.55
31088;BME280;17745;55.914;37.554;2023-04-20T12:09:18;99497.00;;;25.80;15.01
31088;BME280;17745;55.914;37.554;2023-04-20T12:12:09;99485.78;;;26.62;14.76
31088;BME280;17745;55.914;37.554;2023-04-20T12:14:57;99466.25;;;27.51;13.99
31088;BME280;17745;55.914;37.554;2023-04-20T12:17:33;99470.38;;;27.45;13.89
31088;BME280;17745;55.914;37.554;2023-04-20T12:20:02;99467.72;;;26.34;14.60
31088;BME280;17745;55.914;37.554;2023-04-20T12:22:43;99470.34;;;25.82;14.78
31088;BME280;17745;55.914;37.554;2023-04-20T12:25:16;99478.19;;;25.71;14.92
31088;BME280;17745;55.914;37.554;2023-04-20T12:27:52;99475.47;;;26.51;14.74
31088;BME280;17745;55.914;37.554;2023-04-20T12:30:28;99468.03;;;26.84;14.12
31088;BME280;17745;55.914;37.554;2023-04-20T12:33:00;99462.19;;;27.41;13.95
31088;BME280;17745;55.914;37.554;2023-04-20T12:35:30;99453.44;;;28.48;13.30
31088;BME280;17745;55.914;37.554;2023-04-20T12:37:59;99445.06;;;28.07;13.51
31088;BME280;17745;55.914;37.554;2023-04-20T12:40:31;99442.91;;;28.47;13.33
31088;BME280;17745;55.914;37.554;2023-04-20T12:43:22;99409.56;;;29.22;12.80
31088;BME280;17745;55.914;37.554;2023-04-20T12:45:58;99435.66;;;28.28;12.91
31088;BME280;17745;55.914;37.554;2023-04-20T12:48:42;99438.72;;;27.76;13.24
31088;BME280;17745;55.914;37.554;2023-04-20T12:51:28;99430.94;;;28.24;13.21
31088;BME280;17745;55.914;37.554;2023-04-20T12:54:00;99415.22;;;28.41;13.11
31088;BME280;17745;55.914;37.554;2023-04-20T12:56:29;99421.16;;;27.96;13.17
31088;BME280;17745;55.914;37.554;2023-04-20T12:58:58;99423.72;;;27.86;13.34
31088;BME280;17745;55.914;37.554;2023-04-20T13:01:30;99411.16;;;27.77;13.34
31088;BME280;17745;55.914;37.554;2023-04-20T13:04:06;99418.97;;;26.93;13.78
31088;BME280;17745;55.914;37.554;2023-04-20T13:06:36;99432.03;;;26.87;13.91
31088;BME280;17745;55.914;37.554;2023-04-20T13:09:23;99412.13;;;27.22;13.78
31088;BME280;17745;55.914;37.554;2023-04-20T13:11:55;99399.00;;;27.05;13.74
31088;BME280;17745;55.914;37.554;2023-04-20T13:14:29;99396.09;;;26.94;13.86
31088;BME280;17745;55.914;37.554;2023-04-20T13:16:59;99392.28;;;26.59;14.05
31088;BME280;17745;55.914;37.554;2023-04-20T13:19:29;99425.59;;;26.76;14.06
31088;BME280;17745;55.914;37.554;2023-04-20T13:21:57;99413.03;;;26.87;13.93